sensor_id;sensor_type;location;lat;lon;timestamp;P1;durP1;ratioP1;P2;durP2;ratioP2
13560;SDS011;6852;51.686;5.314;2023-04-08T00:00:46;27.47;;;15.37;;
13560;SDS011;6852;51.686;5.314;2023-04-08T00:03:12;24.27;;;14.70;;
13560;SDS011;6852;51.686;5.314;2023-04-08T00:05:40;26.70;;;15.27;;
13560;SDS011;6852;51.686;5.314;2023-04-08T00:08:06;24.27;;;14.40;;
13560;SDS011;6852;51.686;5.314;2023-04-08T00:10:33;21.83;;;14.50;;
13560;SDS011;6852;51.686;5.314;2023-04-08T00:13:00;25.67;;;14.30;;
13560;SDS011;6852;51.686;5.314;2023-04-08T00:15:27;25.23;;;13.50;;
13560;SDS011;6852;51.686;5.314;2023-04-08T00:17:54;33.57;;;15.77;;
13560;SDS011;6852;51.686;5.314;2023-04-08T00:20:22;29.63;;;15.57;;
13560;SDS011;6852;51.686;5.314;2023-04-08T00:22:49;25.87;;;15.43;;
13560;SDS011;6852;51.686;5.314;2023-04-08T00:25:16;27.00;;;14.80;;
13560;SDS011;6852;51.686;5.314;2023-04-08T00:27:43;30.20;;;15.17;;
13560;SDS011;6852;51.686;5.314;2023-04-08T00:30:10;31.83;;;15.93;;
13560;SDS011;6852;51.686;5.314;2023-04-08T00:32:37;29.03;;;15.97;;
13560;SDS011;6852;51.686;5.314;2023-04-08T00:35:04;35.90;;;15.70;;
13560;SDS011;6852;51.686;5.314;2023-04-08T00:37:31;31.13;;;15.97;;
13560;SDS011;6852;51.686;5.314;2023-04-08T00:39:57;29.77;;;16.43;;
13560;SDS011;6852;51.686;5.314;2023-04-08T00:42:24;29.63;;;16.57;;
13560;SDS011;6852;51.686;5.314;2023-04-08T00:44:51;25.47;;;15.70;;
13560;SDS011;6852;51.686;5.314;2023-04-08T00:47:18;26.77;;;17.03;;
13560;SDS011;6852;51.686;5.314;2023-04-08T00:49:45;31.67;;;16.73;;
13560;SDS011;6852;51.686;5.314;2023-04-08T00:52:12;28.27;;;15.67;;
13560;SDS011;6852;51.686;5.314;2023-04-08T00:54:40;29.87;;;16.37;;
13560;SDS011;6852;51.686;5.314;2023-04-08T00:57:07;29.23;;;15.67;;
13560;SDS011;6852;51.686;5.314;2023-04-08T00:59:34;30.93;;;16.50;;
13560;SDS011;6852;51.686;5.314;2023-04-08T01:04:47;31.33;;;16.87;;
13560;SDS011;6852;51.686;5.314;2023-04-08T01:07:26;26.30;;;15.67;;
13560;SDS011;6852;51.686;5.314;2023-04-08T01:10:09;31.60;;;17.40;;
13560;SDS011;6852;51.686;5.314;2023-04-08T01:12:55;32.00;;;16.60;;
13560;SDS011;6852;51.686;5.314;2023-04-08T01:15:27;29.67;;;16.23;;
13560;SDS011;6852;51.686;5.314;2023-04-08T01:17:56;30.23;;;17.57;;
13560;SDS011;6852;51.686;5.314;2023-04-08T01:20:25;30.27;;;16.83;;
13560;SDS011;6852;51.686;5.314;2023-04-08T01:25:32;32.40;;;17.77;;
13560;SDS011;6852;51.686;5.314;2023-04-08T01:28:01;31.43;;;16.83;;
13560;SDS011;6852;51.686;5.314;2023-04-08T01:30:31;29.70;;;16.63;;
13560;SDS011;6852;51.686;5.314;2023-04-08T01:32:59;33.13;;;17.57;;
13560;SDS011;6852;51.686;5.314;2023-04-08T01:35:29;29.90;;;17.53;;
13560;SDS011;6852;51.686;5.314;2023-04-08T01:37:57;28.40;;;17.37;;
13560;SDS011;6852;51.686;5.314;2023-04-08T01:40:25;29.40;;;17.13;;
13560;SDS011;6852;51.686;5.314;2023-04-08T01:42:54;32.77;;;18.33;;
13560;SDS011;6852;51.686;5.314;2023-04-08T01:45:22;33.30;;;17.93;;
13560;SDS011;6852;51.686;5.314;2023-04-08T01:47:50;29.83;;;17.60;;
13560;SDS011;6852;51.686;5.314;2023-04-08T01:50:18;27.00;;;17.00;;
13560;SDS011;6852;51.686;5.314;2023-04-08T01:52:46;34.80;;;18.43;;
13560;SDS011;6852;51.686;5.314;2023-04-08T01:55:15;38.43;;;16.97;;
13560;SDS011;6852;51.686;5.314;2023-04-08T01:57:43;38.77;;;18.30;;
13560;SDS011;6852;51.686;5.314;2023-04-08T02:00:16;33.97;;;17.20;;
13560;SDS011;6852;51.686;5.314;2023-04-08T02:02:46;32.97;;;18.47;;
13560;SDS011;6852;51.686;5.314;2023-04-08T02:05:13;34.90;;;18.40;;
13560;SDS011;6852;51.686;5.314;2023-04-08T02:07:40;34.67;;;18.30;;
13560;SDS011;6852;51.686;5.314;2023-04-08T02:10:07;32.37;;;17.70;;
13560;SDS011;6852;51.686;5.314;2023-04-08T02:12:34;35.83;;;18.40;;
13560;SDS011;6852;51.686;5.314;2023-04-08T02:15:02;32.10;;;17.47;;
13560;SDS011;6852;51.686;5.314;2023-04-08T02:20:09;30.07;;;17.57;;
13560;SDS011;6852;51.686;5.314;2023-04-08T02:22:45;31.57;;;17.30;;
13560;SDS011;6852;51.686;5.314;2023-04-08T02:25:29;28.57;;;17.10;;
13560;SDS011;6852;51.686;5.314;2023-04-08T02:27:59;31.20;;;17.67;;
13560;SDS011;6852;51.686;5.314;2023-04-08T02:30:31;32.87;;;18.30;;
13560;SDS011;6852;51.686;5.314;2023-04-08T02:32:59;31.40;;;18.13;;
13560;SDS011;6852;51.686;5.314;2023-04-08T02:35:28;32.87;;;17.90;;
13560;SDS011;6852;51.686;5.314;2023-04-08T02:37:56;29.83;;;17.03;;
13560;SDS011;6852;51.686;5.314;2023-04-08T02:40:24;33.27;;;18.03;;
13560;SDS011;6852;51.686;5.314;2023-04-08T02:42:51;30.83;;;16.93;;
13560;SDS011;6852;51.686;5.314;2023-04-08T02:45:19;30.93;;;18.20;;
13560;SDS011;6852;51.686;5.314;2023-04-08T02:47:46;32.97;;;17.87;;
13560;SDS011;6852;51.686;5.314;2023-04-08T02:50:13;32.50;;;18.20;;
13560;SDS011;6852;51.686;5.314;2023-04-08T02:52:40;37.20;;;19.47;;
13560;SDS011;6852;51.686;5.314;2023-04-08T02:55:09;33.87;;;18.20;;
13560;SDS011;6852;51.686;5.314;2023-04-08T02:57:37;32.40;;;17.53;;
13560;SDS011;6852;51.686;5.314;2023-04-08T03:00:06;32.87;;;18.30;;
13560;SDS011;6852;51.686;5.314;2023-04-08T03:02:33;34.47;;;18.83;;
13560;SDS011;6852;51.686;5.314;2023-04-08T03:05:01;31.53;;;16.83;;
13560;SDS011;6852;51.686;5.314;2023-04-08T03:07:29;29.97;;;17.03;;
13560;SDS011;6852;51.686;5.314;2023-04-08T03:09:56;32.03;;;17.93;;
13560;SDS011;6852;51.686;5.314;2023-04-08T03:12:23;31.57;;;17.80;;
13560;SDS011;6852;51.686;5.314;2023-04-08T03:14:52;34.60;;;17.70;;
13560;SDS011;6852;51.686;5.314;2023-04-08T03:17:20;34.33;;;17.57;;
13560;SDS011;6852;51.686;5.314;2023-04-08T03:19:47;31.80;;;18.00;;
13560;SDS011;6852;51.686;5.314;2023-04-08T03:22:14;31.17;;;17.37;;
13560;SDS011;6852;51.686;5.314;2023-04-08T03:24:41;30.20;;;17.93;;
13560;SDS011;6852;51.686;5.314;2023-04-08T03:27:08;31.40;;;17.80;;
13560;SDS011;6852;51.686;5.314;2023-04-08T03:29:34;31.40;;;17.80;;
13560;SDS011;6852;51.686;5.314;2023-04-08T03:32:01;29.03;;;16.87;;
13560;SDS011;6852;51.686;5.314;2023-04-08T03:34:28;30.33;;;16.53;;
13560;SDS011;6852;51.686;5.314;2023-04-08T03:36:55;29.97;;;17.03;;
13560;SDS011;6852;51.686;5.314;2023-04-08T03:39:22;34.23;;;18.00;;
13560;SDS011;6852;51.686;5.314;2023-04-08T03:41:49;27.80;;;15.67;;
13560;SDS011;6852;51.686;5.314;2023-04-08T03:44:16;30.90;;;16.60;;
13560;SDS011;6852;51.686;5.314;2023-04-08T03:46:43;30.23;;;16.80;;
13560;SDS011;6852;51.686;5.314;2023-04-08T03:49:10;27.97;;;16.13;;
13560;SDS011;6852;51.686;5.314;2023-04-08T03:51:36;33.93;;;17.30;;
13560;SDS011;6852;51.686;5.314;2023-04-08T03:54:03;29.60;;;16.67;;
13560;SDS011;6852;51.686;5.314;2023-04-08T03:56:30;30.20;;;16.83;;
13560;SDS011;6852;51.686;5.314;2023-04-08T03:58:57;23.97;;;15.00;;
13560;SDS011;6852;51.686;5.314;2023-04-08T04:01:24;27.27;;;15.23;;
13560;SDS011;6852;51.686;5.314;2023-04-08T04:03:51;24.77;;;14.37;;
13560;SDS011;6852;51.686;5.314;2023-04-08T04:06:18;20.80;;;12.63;;
13560;SDS011;6852;51.686;5.314;2023-04-08T04:08:45;20.77;;;12.43;;
13560;SDS011;6852;51.686;5.314;2023-04-08T04:11:12;20.73;;;12.63;;
13560;SDS011;6852;51.686;5.314;2023-04-08T04:13:39;21.47;;;12.77;;
13560;SDS011;6852;51.686;5.314;2023-04-08T04:16:05;33.63;;;15.03;;
13560;SDS011;6852;51.686;5.314;2023-04-08T04:18:32;24.90;;;15.17;;
13560;SDS011;6852;51.686;5.314;2023-04-08T04:20:59;25.73;;;14.63;;
13560;SDS011;6852;51.686;5.314;2023-04-08T04:23:30;25.37;;;14.67;;
13560;SDS011;6852;51.686;5.314;2023-04-08T04:25:56;29.30;;;15.90;;
13560;SDS011;6852;51.686;5.314;2023-04-08T04:28:23;28.43;;;15.90;;
13560;SDS011;6852;51.686;5.314;2023-04-08T04:30:50;30.97;;;16.87;;
13560;SDS011;6852;51.686;5.314;2023-04-08T04:33:19;27.53;;;15.77;;
13560;SDS011;6852;51.686;5.314;2023-04-08T04:35:47;27.20;;;15.43;;
13560;SDS011;6852;51.686;5.314;2023-04-08T04:38:14;24.93;;;15.10;;
13560;SDS011;6852;51.686;5.314;2023-04-08T04:40:41;30.87;;;16.80;;
13560;SDS011;6852;51.686;5.314;2023-04-08T04:43:09;30.13;;;16.37;;
13560;SDS011;6852;51.686;5.314;2023-04-08T04:45:36;26.57;;;16.23;;
13560;SDS011;6852;51.686;5.314;2023-04-08T04:48:03;30.40;;;17.60;;
13560;SDS011;6852;51.686;5.314;2023-04-08T04:50:30;31.57;;;17.07;;
13560;SDS011;6852;51.686;5.314;2023-04-08T04:52:57;32.50;;;17.50;;
13560;SDS011;6852;51.686;5.314;2023-04-08T04:55:23;30.20;;;16.57;;
13560;SDS011;6852;51.686;5.314;2023-04-08T04:57:50;32.50;;;16.80;;
13560;SDS011;6852;51.686;5.314;2023-04-08T05:00:17;31.40;;;17.50;;
13560;SDS011;6852;51.686;5.314;2023-04-08T05:02:44;29.90;;;16.27;;
13560;SDS011;6852;51.686;5.314;2023-04-08T05:05:12;32.67;;;17.27;;
13560;SDS011;6852;51.686;5.314;2023-04-08T05:07:39;29.67;;;17.17;;
13560;SDS011;6852;51.686;5.314;2023-04-08T05:10:05;32.50;;;17.27;;
13560;SDS011;6852;51.686;5.314;2023-04-08T05:12:33;32.63;;;17.73;;
13560;SDS011;6852;51.686;5.314;2023-04-08T05:15:00;30.30;;;16.67;;
13560;SDS011;6852;51.686;5.314;2023-04-08T05:17:27;30.67;;;16.93;;
13560;SDS011;6852;51.686;5.314;2023-04-08T05:19:54;28.10;;;16.37;;
13560;SDS011;6852;51.686;5.314;2023-04-08T05:22:21;31.53;;;16.60;;
13560;SDS011;6852;51.686;5.314;2023-04-08T05:24:48;33.60;;;18.43;;
13560;SDS011;6852;51.686;5.314;2023-04-08T05:27:14;31.17;;;16.97;;
13560;SDS011;6852;51.686;5.314;2023-04-08T05:29:41;35.33;;;17.57;;
13560;SDS011;6852;51.686;5.314;2023-04-08T05:32:08;34.50;;;18.10;;
13560;SDS011;6852;51.686;5.314;2023-04-08T05:34:35;29.37;;;16.90;;
13560;SDS011;6852;51.686;5.314;2023-04-08T05:37:02;29.93;;;15.43;;
13560;SDS011;6852;51.686;5.314;2023-04-08T05:39:29;33.87;;;18.33;;
13560;SDS011;6852;51.686;5.314;2023-04-08T05:41:56;34.73;;;17.97;;
13560;SDS011;6852;51.686;5.314;2023-04-08T05:44:22;28.63;;;16.57;;
13560;SDS011;6852;51.686;5.314;2023-04-08T05:46:49;29.83;;;18.40;;
13560;SDS011;6852;51.686;5.314;2023-04-08T05:49:16;28.20;;;16.83;;
13560;SDS011;6852;51.686;5.314;2023-04-08T05:51:43;31.33;;;17.33;;
13560;SDS011;6852;51.686;5.314;2023-04-08T05:54:10;27.23;;;16.43;;
13560;SDS011;6852;51.686;5.314;2023-04-08T05:56:37;33.40;;;17.23;;
13560;SDS011;6852;51.686;5.314;2023-04-08T05:59:04;30.97;;;15.37;;
13560;SDS011;6852;51.686;5.314;2023-04-08T06:01:31;31.27;;;17.03;;
13560;SDS011;6852;51.686;5.314;2023-04-08T06:03:58;28.77;;;18.33;;
13560;SDS011;6852;51.686;5.314;2023-04-08T06:06:25;31.77;;;16.83;;
13560;SDS011;6852;51.686;5.314;2023-04-08T06:08:52;29.10;;;15.87;;
13560;SDS011;6852;51.686;5.314;2023-04-08T06:11:19;30.73;;;16.80;;
13560;SDS011;6852;51.686;5.314;2023-04-08T06:13:46;29.90;;;16.63;;
13560;SDS011;6852;51.686;5.314;2023-04-08T06:16:14;28.93;;;16.83;;
13560;SDS011;6852;51.686;5.314;2023-04-08T06:18:46;31.93;;;17.37;;
13560;SDS011;6852;51.686;5.314;2023-04-08T06:21:14;29.50;;;17.03;;
13560;SDS011;6852;51.686;5.314;2023-04-08T06:23:41;33.40;;;17.13;;
13560;SDS011;6852;51.686;5.314;2023-04-08T06:26:07;34.87;;;18.40;;
13560;SDS011;6852;51.686;5.314;2023-04-08T06:28:34;31.37;;;17.63;;
13560;SDS011;6852;51.686;5.314;2023-04-08T06:31:01;32.83;;;17.47;;
13560;SDS011;6852;51.686;5.314;2023-04-08T06:33:28;28.17;;;16.83;;
13560;SDS011;6852;51.686;5.314;2023-04-08T06:36:05;29.87;;;16.30;;
13560;SDS011;6852;51.686;5.314;2023-04-08T06:38:33;27.57;;;15.40;;
13560;SDS011;6852;51.686;5.314;2023-04-08T06:41:01;28.53;;;15.47;;
13560;SDS011;6852;51.686;5.314;2023-04-08T06:43:28;31.70;;;15.93;;
13560;SDS011;6852;51.686;5.314;2023-04-08T06:45:56;31.00;;;14.87;;
13560;SDS011;6852;51.686;5.314;2023-04-08T06:48:23;28.07;;;15.67;;
13560;SDS011;6852;51.686;5.314;2023-04-08T06:50:56;24.97;;;14.30;;
13560;SDS011;6852;51.686;5.314;2023-04-08T06:53:23;24.53;;;14.17;;
13560;SDS011;6852;51.686;5.314;2023-04-08T06:55:51;25.97;;;14.30;;
13560;SDS011;6852;51.686;5.314;2023-04-08T06:58:18;28.47;;;14.93;;
13560;SDS011;6852;51.686;5.314;2023-04-08T07:00:45;29.07;;;14.33;;
13560;SDS011;6852;51.686;5.314;2023-04-08T07:03:12;23.10;;;14.03;;
13560;SDS011;6852;51.686;5.314;2023-04-08T07:05:39;28.17;;;13.57;;
13560;SDS011;6852;51.686;5.314;2023-04-08T07:08:07;24.47;;;13.60;;
13560;SDS011;6852;51.686;5.314;2023-04-08T07:10:34;23.03;;;13.20;;
13560;SDS011;6852;51.686;5.314;2023-04-08T07:13:01;24.20;;;13.57;;
13560;SDS011;6852;51.686;5.314;2023-04-08T07:15:28;21.77;;;13.53;;
13560;SDS011;6852;51.686;5.314;2023-04-08T07:17:56;21.53;;;13.13;;
13560;SDS011;6852;51.686;5.314;2023-04-08T07:20:24;23.10;;;12.87;;
13560;SDS011;6852;51.686;5.314;2023-04-08T07:22:51;21.77;;;13.27;;
13560;SDS011;6852;51.686;5.314;2023-04-08T07:25:18;24.03;;;13.83;;
13560;SDS011;6852;51.686;5.314;2023-04-08T07:27:45;22.87;;;11.80;;
13560;SDS011;6852;51.686;5.314;2023-04-08T07:30:12;22.00;;;13.60;;
13560;SDS011;6852;51.686;5.314;2023-04-08T07:32:39;19.67;;;12.13;;
13560;SDS011;6852;51.686;5.314;2023-04-08T07:35:06;21.13;;;12.33;;
13560;SDS011;6852;51.686;5.314;2023-04-08T07:37:33;23.50;;;12.80;;
13560;SDS011;6852;51.686;5.314;2023-04-08T07:40:00;22.97;;;13.30;;
13560;SDS011;6852;51.686;5.314;2023-04-08T07:42:27;25.97;;;13.33;;
13560;SDS011;6852;51.686;5.314;2023-04-08T07:44:54;20.53;;;13.53;;
13560;SDS011;6852;51.686;5.314;2023-04-08T07:47:21;24.67;;;13.23;;
13560;SDS011;6852;51.686;5.314;2023-04-08T07:49:48;21.03;;;12.93;;
13560;SDS011;6852;51.686;5.314;2023-04-08T07:52:15;19.83;;;12.73;;
13560;SDS011;6852;51.686;5.314;2023-04-08T07:54:42;24.40;;;13.17;;
13560;SDS011;6852;51.686;5.314;2023-04-08T07:57:09;18.67;;;11.97;;
13560;SDS011;6852;51.686;5.314;2023-04-08T07:59:36;20.13;;;13.50;;
13560;SDS011;6852;51.686;5.314;2023-04-08T08:02:03;18.00;;;12.17;;
13560;SDS011;6852;51.686;5.314;2023-04-08T08:04:30;19.63;;;12.63;;
13560;SDS011;6852;51.686;5.314;2023-04-08T08:06:58;18.63;;;12.63;;
13560;SDS011;6852;51.686;5.314;2023-04-08T08:09:24;20.93;;;12.63;;
13560;SDS011;6852;51.686;5.314;2023-04-08T08:11:51;18.63;;;12.50;;
13560;SDS011;6852;51.686;5.314;2023-04-08T08:14:18;17.30;;;11.77;;
13560;SDS011;6852;51.686;5.314;2023-04-08T08:16:45;17.30;;;12.03;;
13560;SDS011;6852;51.686;5.314;2023-04-08T08:19:12;18.07;;;11.90;;
13560;SDS011;6852;51.686;5.314;2023-04-08T08:21:39;20.30;;;12.47;;
13560;SDS011;6852;51.686;5.314;2023-04-08T08:24:06;16.60;;;11.20;;
13560;SDS011;6852;51.686;5.314;2023-04-08T08:26:34;20.93;;;12.73;;
13560;SDS011;6852;51.686;5.314;2023-04-08T08:29:02;19.57;;;13.47;;
13560;SDS011;6852;51.686;5.314;2023-04-08T08:31:29;19.80;;;12.80;;
13560;SDS011;6852;51.686;5.314;2023-04-08T08:33:56;18.43;;;12.40;;
13560;SDS011;6852;51.686;5.314;2023-04-08T08:36:23;17.90;;;12.33;;
13560;SDS011;6852;51.686;5.314;2023-04-08T08:38:50;19.50;;;13.07;;
13560;SDS011;6852;51.686;5.314;2023-04-08T08:41:19;18.10;;;12.00;;
13560;SDS011;6852;51.686;5.314;2023-04-08T08:43:46;17.50;;;12.43;;
13560;SDS011;6852;51.686;5.314;2023-04-08T08:46:15;16.60;;;12.00;;
13560;SDS011;6852;51.686;5.314;2023-04-08T08:48:45;17.73;;;12.33;;
13560;SDS011;6852;51.686;5.314;2023-04-08T08:51:12;14.70;;;11.83;;
13560;SDS011;6852;51.686;5.314;2023-04-08T08:53:39;17.33;;;12.13;;
13560;SDS011;6852;51.686;5.314;2023-04-08T08:56:15;16.33;;;11.73;;
13560;SDS011;6852;51.686;5.314;2023-04-08T08:58:44;15.37;;;11.70;;
13560;SDS011;6852;51.686;5.314;2023-04-08T09:01:28;15.77;;;11.83;;
13560;SDS011;6852;51.686;5.314;2023-04-08T09:06:34;16.60;;;11.87;;
13560;SDS011;6852;51.686;5.314;2023-04-08T09:09:01;15.33;;;11.70;;
13560;SDS011;6852;51.686;5.314;2023-04-08T09:11:31;15.70;;;11.30;;
13560;SDS011;6852;51.686;5.314;2023-04-08T09:13:58;15.27;;;11.30;;
13560;SDS011;6852;51.686;5.314;2023-04-08T09:16:25;18.93;;;12.23;;
13560;SDS011;6852;51.686;5.314;2023-04-08T09:18:53;15.47;;;11.90;;
13560;SDS011;6852;51.686;5.314;2023-04-08T09:21:21;16.60;;;12.03;;
13560;SDS011;6852;51.686;5.314;2023-04-08T09:23:50;17.40;;;12.30;;
13560;SDS011;6852;51.686;5.314;2023-04-08T09:26:18;17.17;;;11.97;;
13560;SDS011;6852;51.686;5.314;2023-04-08T09:29:00;16.20;;;11.67;;
13560;SDS011;6852;51.686;5.314;2023-04-08T09:31:52;14.27;;;12.10;;
13560;SDS011;6852;51.686;5.314;2023-04-08T09:34:21;17.97;;;13.00;;
13560;SDS011;6852;51.686;5.314;2023-04-08T09:36:49;16.93;;;13.03;;
13560;SDS011;6852;51.686;5.314;2023-04-08T09:39:17;16.20;;;11.97;;
13560;SDS011;6852;51.686;5.314;2023-04-08T09:41:46;18.07;;;13.33;;
13560;SDS011;6852;51.686;5.314;2023-04-08T09:44:15;18.17;;;12.90;;
13560;SDS011;6852;51.686;5.314;2023-04-08T09:49:26;19.40;;;12.70;;
13560;SDS011;6852;51.686;5.314;2023-04-08T09:54:43;18.37;;;13.60;;
13560;SDS011;6852;51.686;5.314;2023-04-08T09:57:24;19.87;;;14.67;;
13560;SDS011;6852;51.686;5.314;2023-04-08T10:00:24;19.77;;;14.17;;
13560;SDS011;6852;51.686;5.314;2023-04-08T10:03:04;20.50;;;14.37;;
13560;SDS011;6852;51.686;5.314;2023-04-08T10:05:36;19.87;;;14.23;;
13560;SDS011;6852;51.686;5.314;2023-04-08T10:08:06;22.60;;;15.43;;
13560;SDS011;6852;51.686;5.314;2023-04-08T10:10:33;19.03;;;14.77;;
13560;SDS011;6852;51.686;5.314;2023-04-08T10:13:05;23.23;;;14.93;;
13560;SDS011;6852;51.686;5.314;2023-04-08T10:15:33;19.70;;;15.20;;
13560;SDS011;6852;51.686;5.314;2023-04-08T10:23:03;19.83;;;15.10;;
13560;SDS011;6852;51.686;5.314;2023-04-08T10:25:33;21.97;;;15.70;;
13560;SDS011;6852;51.686;5.314;2023-04-08T10:33:08;21.73;;;14.97;;
13560;SDS011;6852;51.686;5.314;2023-04-08T10:35:47;20.07;;;15.53;;
13560;SDS011;6852;51.686;5.314;2023-04-08T10:38:17;24.00;;;16.23;;
13560;SDS011;6852;51.686;5.314;2023-04-08T10:40:46;18.47;;;15.13;;
13560;SDS011;6852;51.686;5.314;2023-04-08T10:43:14;17.90;;;14.60;;
13560;SDS011;6852;51.686;5.314;2023-04-08T10:45:41;21.90;;;15.73;;
13560;SDS011;6852;51.686;5.314;2023-04-08T10:48:16;19.53;;;15.47;;
13560;SDS011;6852;51.686;5.314;2023-04-08T10:50:55;17.10;;;14.20;;
13560;SDS011;6852;51.686;5.314;2023-04-08T10:53:26;20.40;;;14.73;;
13560;SDS011;6852;51.686;5.314;2023-04-08T10:56:11;19.13;;;14.97;;
13560;SDS011;6852;51.686;5.314;2023-04-08T10:58:50;20.77;;;14.10;;
13560;SDS011;6852;51.686;5.314;2023-04-08T11:01:17;18.67;;;15.33;;
13560;SDS011;6852;51.686;5.314;2023-04-08T11:03:45;17.40;;;13.97;;
13560;SDS011;6852;51.686;5.314;2023-04-08T11:06:12;19.10;;;15.27;;
13560;SDS011;6852;51.686;5.314;2023-04-08T11:08:38;19.10;;;13.97;;
13560;SDS011;6852;51.686;5.314;2023-04-08T11:11:06;16.70;;;14.57;;
13560;SDS011;6852;51.686;5.314;2023-04-08T11:13:40;18.77;;;14.60;;
13560;SDS011;6852;51.686;5.314;2023-04-08T11:16:18;21.13;;;15.63;;
13560;SDS011;6852;51.686;5.314;2023-04-08T11:18:47;17.07;;;13.87;;
13560;SDS011;6852;51.686;5.314;2023-04-08T11:21:15;18.07;;;14.47;;
13560;SDS011;6852;51.686;5.314;2023-04-08T11:23:42;15.43;;;13.07;;
13560;SDS011;6852;51.686;5.314;2023-04-08T11:26:09;17.90;;;14.80;;
13560;SDS011;6852;51.686;5.314;2023-04-08T11:28:36;16.00;;;13.33;;
13560;SDS011;6852;51.686;5.314;2023-04-08T11:31:04;17.70;;;14.43;;
13560;SDS011;6852;51.686;5.314;2023-04-08T11:33:31;17.60;;;13.20;;
13560;SDS011;6852;51.686;5.314;2023-04-08T11:36:00;14.80;;;13.20;;
13560;SDS011;6852;51.686;5.314;2023-04-08T11:38:29;14.30;;;12.23;;
13560;SDS011;6852;51.686;5.314;2023-04-08T11:40:57;13.60;;;11.80;;
13560;SDS011;6852;51.686;5.314;2023-04-08T11:43:25;13.53;;;11.47;;
13560;SDS011;6852;51.686;5.314;2023-04-08T11:45:52;13.23;;;11.60;;
13560;SDS011;6852;51.686;5.314;2023-04-08T11:48:19;14.30;;;12.67;;
13560;SDS011;6852;51.686;5.314;2023-04-08T11:50:46;14.03;;;12.50;;
13560;SDS011;6852;51.686;5.314;2023-04-08T11:53:20;14.87;;;13.33;;
13560;SDS011;6852;51.686;5.314;2023-04-08T11:55:50;15.07;;;12.83;;
13560;SDS011;6852;51.686;5.314;2023-04-08T11:58:17;14.17;;;12.63;;
13560;SDS011;6852;51.686;5.314;2023-04-08T12:00:44;14.37;;;12.40;;
13560;SDS011;6852;51.686;5.314;2023-04-08T12:03:11;13.60;;;12.20;;
13560;SDS011;6852;51.686;5.314;2023-04-08T12:05:39;16.10;;;12.70;;
13560;SDS011;6852;51.686;5.314;2023-04-08T12:08:06;12.90;;;11.60;;
13560;SDS011;6852;51.686;5.314;2023-04-08T12:10:33;12.40;;;11.10;;
13560;SDS011;6852;51.686;5.314;2023-04-08T12:13:00;14.37;;;11.50;;
13560;SDS011;6852;51.686;5.314;2023-04-08T12:15:27;12.77;;;11.00;;
13560;SDS011;6852;51.686;5.314;2023-04-08T12:17:54;12.67;;;11.33;;
13560;SDS011;6852;51.686;5.314;2023-04-08T12:20:21;11.60;;;10.50;;
13560;SDS011;6852;51.686;5.314;2023-04-08T12:22:48;12.33;;;11.13;;
13560;SDS011;6852;51.686;5.314;2023-04-08T12:25:14;13.47;;;11.47;;
13560;SDS011;6852;51.686;5.314;2023-04-08T12:27:41;13.20;;;11.80;;
13560;SDS011;6852;51.686;5.314;2023-04-08T12:30:08;12.57;;;11.27;;
13560;SDS011;6852;51.686;5.314;2023-04-08T12:32:35;14.63;;;11.43;;
13560;SDS011;6852;51.686;5.314;2023-04-08T12:35:10;12.97;;;11.67;;
13560;SDS011;6852;51.686;5.314;2023-04-08T12:37:36;12.03;;;10.70;;
13560;SDS011;6852;51.686;5.314;2023-04-08T12:40:03;12.07;;;10.77;;
13560;SDS011;6852;51.686;5.314;2023-04-08T12:42:31;13.63;;;12.23;;
13560;SDS011;6852;51.686;5.314;2023-04-08T12:44:58;13.30;;;11.33;;
13560;SDS011;6852;51.686;5.314;2023-04-08T12:47:26;12.50;;;11.20;;
13560;SDS011;6852;51.686;5.314;2023-04-08T12:49:52;12.77;;;11.47;;
13560;SDS011;6852;51.686;5.314;2023-04-08T12:52:19;13.47;;;11.83;;
13560;SDS011;6852;51.686;5.314;2023-04-08T12:54:46;13.97;;;11.40;;
13560;SDS011;6852;51.686;5.314;2023-04-08T12:57:13;14.20;;;11.97;;
13560;SDS011;6852;51.686;5.314;2023-04-08T12:59:40;15.00;;;11.67;;
13560;SDS011;6852;51.686;5.314;2023-04-08T13:02:07;12.80;;;11.50;;
13560;SDS011;6852;51.686;5.314;2023-04-08T13:04:34;12.67;;;11.17;;
13560;SDS011;6852;51.686;5.314;2023-04-08T13:07:01;16.17;;;11.30;;
13560;SDS011;6852;51.686;5.314;2023-04-08T13:09:29;13.50;;;12.07;;
13560;SDS011;6852;51.686;5.314;2023-04-08T13:11:56;13.80;;;12.40;;
13560;SDS011;6852;51.686;5.314;2023-04-08T13:14:23;13.27;;;11.83;;
13560;SDS011;6852;51.686;5.314;2023-04-08T13:16:50;15.17;;;12.33;;
13560;SDS011;6852;51.686;5.314;2023-04-08T13:19:17;11.90;;;10.67;;
13560;SDS011;6852;51.686;5.314;2023-04-08T13:21:44;13.13;;;11.83;;
13560;SDS011;6852;51.686;5.314;2023-04-08T13:24:11;15.87;;;11.87;;
13560;SDS011;6852;51.686;5.314;2023-04-08T13:26:38;13.40;;;11.83;;
13560;SDS011;6852;51.686;5.314;2023-04-08T13:29:05;14.80;;;12.00;;
13560;SDS011;6852;51.686;5.314;2023-04-08T13:31:32;12.67;;;11.40;;
13560;SDS011;6852;51.686;5.314;2023-04-08T13:33:59;14.50;;;11.97;;
13560;SDS011;6852;51.686;5.314;2023-04-08T13:36:26;13.40;;;11.97;;
13560;SDS011;6852;51.686;5.314;2023-04-08T13:38:56;14.67;;;11.50;;
13560;SDS011;6852;51.686;5.314;2023-04-08T13:41:23;13.73;;;12.13;;
13560;SDS011;6852;51.686;5.314;2023-04-08T13:43:51;13.83;;;11.20;;
13560;SDS011;6852;51.686;5.314;2023-04-08T13:46:18;11.97;;;10.37;;
13560;SDS011;6852;51.686;5.314;2023-04-08T13:48:46;12.80;;;10.77;;
13560;SDS011;6852;51.686;5.314;2023-04-08T13:51:13;11.53;;;9.67;;
13560;SDS011;6852;51.686;5.314;2023-04-08T13:53:39;12.07;;;10.33;;
13560;SDS011;6852;51.686;5.314;2023-04-08T13:56:06;10.17;;;8.93;;
13560;SDS011;6852;51.686;5.314;2023-04-08T13:58:33;11.93;;;8.93;;
13560;SDS011;6852;51.686;5.314;2023-04-08T14:01:00;10.57;;;8.60;;
13560;SDS011;6852;51.686;5.314;2023-04-08T14:03:28;10.60;;;9.50;;
13560;SDS011;6852;51.686;5.314;2023-04-08T14:05:55;10.37;;;7.97;;
13560;SDS011;6852;51.686;5.314;2023-04-08T14:08:23;10.57;;;8.50;;
13560;SDS011;6852;51.686;5.314;2023-04-08T14:10:51;9.50;;;7.77;;
13560;SDS011;6852;51.686;5.314;2023-04-08T14:13:20;12.90;;;8.90;;
13560;SDS011;6852;51.686;5.314;2023-04-08T14:15:47;10.93;;;8.37;;
13560;SDS011;6852;51.686;5.314;2023-04-08T14:18:15;14.47;;;8.80;;
13560;SDS011;6852;51.686;5.314;2023-04-08T14:20:44;8.60;;;7.23;;
13560;SDS011;6852;51.686;5.314;2023-04-08T14:23:11;10.80;;;7.90;;
13560;SDS011;6852;51.686;5.314;2023-04-08T14:25:38;10.23;;;8.00;;
13560;SDS011;6852;51.686;5.314;2023-04-08T14:28:06;11.23;;;7.67;;
13560;SDS011;6852;51.686;5.314;2023-04-08T14:30:33;10.97;;;8.13;;
13560;SDS011;6852;51.686;5.314;2023-04-08T14:33:01;10.03;;;7.17;;
13560;SDS011;6852;51.686;5.314;2023-04-08T14:35:30;10.50;;;7.87;;
13560;SDS011;6852;51.686;5.314;2023-04-08T14:37:58;12.50;;;7.83;;
13560;SDS011;6852;51.686;5.314;2023-04-08T14:40:25;9.83;;;7.17;;
13560;SDS011;6852;51.686;5.314;2023-04-08T14:42:52;10.30;;;6.67;;
13560;SDS011;6852;51.686;5.314;2023-04-08T14:45:19;8.97;;;7.10;;
13560;SDS011;6852;51.686;5.314;2023-04-08T14:47:46;10.93;;;7.20;;
13560;SDS011;6852;51.686;5.314;2023-04-08T14:50:12;10.27;;;6.93;;
13560;SDS011;6852;51.686;5.314;2023-04-08T14:52:39;9.27;;;6.97;;
13560;SDS011;6852;51.686;5.314;2023-04-08T14:55:06;10.60;;;7.03;;
13560;SDS011;6852;51.686;5.314;2023-04-08T14:57:33;10.20;;;7.67;;
13560;SDS011;6852;51.686;5.314;2023-04-08T15:00:00;7.57;;;6.27;;
13560;SDS011;6852;51.686;5.314;2023-04-08T15:02:27;8.07;;;6.17;;
13560;SDS011;6852;51.686;5.314;2023-04-08T15:04:54;9.53;;;6.67;;
13560;SDS011;6852;51.686;5.314;2023-04-08T15:07:21;8.37;;;6.73;;